Bicknell, Indiana
Current Conditions -  °F | °C
As of 12:35 AM on Friday 31 Oct 2014 (Local Time) from KDCY Reporting Station
Drizzle Drizzle  
Wind Chill: 46°   Ceiling: 4000
Heat Index: 46°   Visibility: 10mi
Dew Point: 45°   Wind: 0mph
Humidity: 96%   Direction: NA
Pressure: 30.04"   Gusts: NA
Location:  38.77°N, 87.31°W
Report Text: KDCY 310535Z AUTO 00000KT 10SM DZ BKN040 OVC055 08/07 A3004 RMK AO2 P0001 T00800074
Loading
Personal Weather Stations






























Interactive Weather Map
Tropical Storm Tracking
New forecast layout! Learn more

10-Day Weather Forecast

Advertisements
Track Severe Weather on mobile